sensor_id;sensor_type;location;lat;lon;timestamp;P1;durP1;ratioP1;P2;durP2;ratioP2
61460;SDS011;47325;50.506;4.472;2023-03-14T00:03:23;4.50;;;1.30;;
61460;SDS011;47325;50.506;4.472;2023-03-14T00:09:07;4.60;;;1.20;;
61460;SDS011;47325;50.506;4.472;2023-03-14T00:14:51;4.10;;;1.30;;
61460;SDS011;47325;50.506;4.472;2023-03-14T00:20:34;3.50;;;1.10;;
61460;SDS011;47325;50.506;4.472;2023-03-14T00:26:19;3.80;;;1.40;;
61460;SDS011;47325;50.506;4.472;2023-03-14T00:32:03;3.60;;;1.40;;
61460;SDS011;47325;50.506;4.472;2023-03-14T00:37:47;4.90;;;1.40;;
61460;SDS011;47325;50.506;4.472;2023-03-14T00:43:31;4.80;;;1.40;;
61460;SDS011;47325;50.506;4.472;2023-03-14T00:49:14;2.80;;;1.10;;
61460;SDS011;47325;50.506;4.472;2023-03-14T00:54:58;4.40;;;1.20;;
61460;SDS011;47325;50.506;4.472;2023-03-14T01:00:42;4.30;;;1.30;;
61460;SDS011;47325;50.506;4.472;2023-03-14T01:06:27;4.70;;;1.30;;
61460;SDS011;47325;50.506;4.472;2023-03-14T01:12:10;6.50;;;1.40;;
61460;SDS011;47325;50.506;4.472;2023-03-14T01:17:54;5.90;;;1.30;;
61460;SDS011;47325;50.506;4.472;2023-03-14T01:23:38;7.50;;;1.60;;
61460;SDS011;47325;50.506;4.472;2023-03-14T01:29:22;6.40;;;1.40;;
61460;SDS011;47325;50.506;4.472;2023-03-14T01:35:07;5.60;;;1.80;;
61460;SDS011;47325;50.506;4.472;2023-03-14T01:40:50;5.80;;;1.40;;
61460;SDS011;47325;50.506;4.472;2023-03-14T01:46:36;5.40;;;1.30;;
61460;SDS011;47325;50.506;4.472;2023-03-14T01:52:21;4.80;;;1.50;;
61460;SDS011;47325;50.506;4.472;2023-03-14T01:58:06;6.50;;;1.40;;
61460;SDS011;47325;50.506;4.472;2023-03-14T02:03:52;7.70;;;1.90;;
61460;SDS011;47325;50.506;4.472;2023-03-14T02:09:37;3.70;;;1.10;;
61460;SDS011;47325;50.506;4.472;2023-03-14T02:15:21;5.40;;;1.60;;
61460;SDS011;47325;50.506;4.472;2023-03-14T02:21:08;5.90;;;1.50;;
61460;SDS011;47325;50.506;4.472;2023-03-14T02:27:04;6.10;;;1.50;;
61460;SDS011;47325;50.506;4.472;2023-03-14T02:32:49;5.30;;;1.50;;
61460;SDS011;47325;50.506;4.472;2023-03-14T02:38:35;5.40;;;1.50;;
61460;SDS011;47325;50.506;4.472;2023-03-14T02:44:21;4.80;;;1.60;;
61460;SDS011;47325;50.506;4.472;2023-03-14T02:50:06;4.60;;;1.30;;
61460;SDS011;47325;50.506;4.472;2023-03-14T02:55:51;6.50;;;1.70;;
61460;SDS011;47325;50.506;4.472;2023-03-14T03:01:35;5.90;;;1.60;;
61460;SDS011;47325;50.506;4.472;2023-03-14T03:07:19;6.70;;;1.70;;
61460;SDS011;47325;50.506;4.472;2023-03-14T03:13:02;4.70;;;1.60;;
61460;SDS011;47325;50.506;4.472;2023-03-14T03:18:46;7.30;;;1.70;;
61460;SDS011;47325;50.506;4.472;2023-03-14T03:24:30;6.00;;;1.40;;
61460;SDS011;47325;50.506;4.472;2023-03-14T03:30:15;6.10;;;1.40;;
61460;SDS011;47325;50.506;4.472;2023-03-14T03:35:59;5.80;;;1.50;;
61460;SDS011;47325;50.506;4.472;2023-03-14T03:41:43;5.80;;;1.20;;
61460;SDS011;47325;50.506;4.472;2023-03-14T03:47:27;3.80;;;1.50;;
61460;SDS011;47325;50.506;4.472;2023-03-14T03:53:10;3.90;;;1.10;;
61460;SDS011;47325;50.506;4.472;2023-03-14T03:59:11;5.90;;;1.40;;
61460;SDS011;47325;50.506;4.472;2023-03-14T04:04:55;4.20;;;1.30;;
61460;SDS011;47325;50.506;4.472;2023-03-14T04:10:39;5.60;;;1.40;;
61460;SDS011;47325;50.506;4.472;2023-03-14T04:16:24;2.70;;;1.00;;
61460;SDS011;47325;50.506;4.472;2023-03-14T04:22:08;3.70;;;1.00;;
61460;SDS011;47325;50.506;4.472;2023-03-14T04:27:52;3.30;;;1.10;;
61460;SDS011;47325;50.506;4.472;2023-03-14T04:33:36;3.30;;;1.10;;
61460;SDS011;47325;50.506;4.472;2023-03-14T04:39:19;2.80;;;0.90;;
61460;SDS011;47325;50.506;4.472;2023-03-14T04:45:04;3.40;;;1.10;;
61460;SDS011;47325;50.506;4.472;2023-03-14T04:50:47;2.50;;;1.00;;
61460;SDS011;47325;50.506;4.472;2023-03-14T04:56:31;2.80;;;1.10;;
61460;SDS011;47325;50.506;4.472;2023-03-14T05:02:15;1.90;;;1.00;;
61460;SDS011;47325;50.506;4.472;2023-03-14T05:07:59;3.50;;;1.00;;
61460;SDS011;47325;50.506;4.472;2023-03-14T05:13:43;1.80;;;0.90;;
61460;SDS011;47325;50.506;4.472;2023-03-14T05:19:27;1.80;;;0.80;;
61460;SDS011;47325;50.506;4.472;2023-03-14T05:25:11;2.00;;;0.70;;
61460;SDS011;47325;50.506;4.472;2023-03-14T05:30:55;3.40;;;1.00;;
61460;SDS011;47325;50.506;4.472;2023-03-14T05:36:39;1.60;;;0.70;;
61460;SDS011;47325;50.506;4.472;2023-03-14T05:42:22;1.90;;;0.80;;
61460;SDS011;47325;50.506;4.472;2023-03-14T05:48:07;1.50;;;0.80;;
61460;SDS011;47325;50.506;4.472;2023-03-14T05:53:51;2.10;;;0.80;;
61460;SDS011;47325;50.506;4.472;2023-03-14T05:59:35;1.80;;;0.80;;
61460;SDS011;47325;50.506;4.472;2023-03-14T06:05:20;1.60;;;0.80;;
61460;SDS011;47325;50.506;4.472;2023-03-14T06:11:04;1.60;;;0.80;;
61460;SDS011;47325;50.506;4.472;2023-03-14T06:16:48;1.80;;;0.80;;
61460;SDS011;47325;50.506;4.472;2023-03-14T06:22:32;1.90;;;0.80;;
61460;SDS011;47325;50.506;4.472;2023-03-14T06:28:16;1.80;;;1.00;;
61460;SDS011;47325;50.506;4.472;2023-03-14T06:34:00;2.30;;;0.90;;
61460;SDS011;47325;50.506;4.472;2023-03-14T06:39:44;1.60;;;0.80;;
61460;SDS011;47325;50.506;4.472;2023-03-14T06:45:27;2.00;;;0.80;;
61460;SDS011;47325;50.506;4.472;2023-03-14T06:51:12;0.80;;;0.70;;
61460;SDS011;47325;50.506;4.472;2023-03-14T06:56:55;2.20;;;0.80;;
61460;SDS011;47325;50.506;4.472;2023-03-14T07:02:39;1.40;;;0.80;;
61460;SDS011;47325;50.506;4.472;2023-03-14T07:08:26;2.30;;;1.10;;
61460;SDS011;47325;50.506;4.472;2023-03-14T07:14:09;1.10;;;0.70;;
61460;SDS011;47325;50.506;4.472;2023-03-14T07:19:53;3.60;;;0.70;;
61460;SDS011;47325;50.506;4.472;2023-03-14T07:25:37;0.90;;;0.70;;
61460;SDS011;47325;50.506;4.472;2023-03-14T07:31:21;1.70;;;0.80;;
61460;SDS011;47325;50.506;4.472;2023-03-14T07:37:05;2.40;;;0.90;;
61460;SDS011;47325;50.506;4.472;2023-03-14T07:42:48;2.80;;;1.10;;
61460;SDS011;47325;50.506;4.472;2023-03-14T07:48:32;1.80;;;0.80;;
61460;SDS011;47325;50.506;4.472;2023-03-14T07:54:16;2.00;;;1.00;;
61460;SDS011;47325;50.506;4.472;2023-03-14T08:00:03;3.20;;;1.00;;
61460;SDS011;47325;50.506;4.472;2023-03-14T08:05:47;2.20;;;0.80;;
61460;SDS011;47325;50.506;4.472;2023-03-14T08:11:31;2.20;;;1.00;;
61460;SDS011;47325;50.506;4.472;2023-03-14T08:17:15;2.00;;;1.20;;
61460;SDS011;47325;50.506;4.472;2023-03-14T08:22:59;2.20;;;1.40;;
61460;SDS011;47325;50.506;4.472;2023-03-14T08:28:44;2.70;;;1.40;;
61460;SDS011;47325;50.506;4.472;2023-03-14T08:34:28;2.80;;;1.60;;
61460;SDS011;47325;50.506;4.472;2023-03-14T08:40:12;3.80;;;1.90;;
61460;SDS011;47325;50.506;4.472;2023-03-14T08:45:56;3.10;;;1.70;;
61460;SDS011;47325;50.506;4.472;2023-03-14T08:51:41;2.80;;;1.90;;
61460;SDS011;47325;50.506;4.472;2023-03-14T08:57:24;3.60;;;2.20;;
61460;SDS011;47325;50.506;4.472;2023-03-14T09:03:09;4.40;;;2.50;;
61460;SDS011;47325;50.506;4.472;2023-03-14T09:08:52;4.30;;;2.50;;
61460;SDS011;47325;50.506;4.472;2023-03-14T09:14:36;5.80;;;2.50;;
61460;SDS011;47325;50.506;4.472;2023-03-14T09:20:20;3.90;;;2.40;;
61460;SDS011;47325;50.506;4.472;2023-03-14T09:26:04;3.80;;;2.40;;
61460;SDS011;47325;50.506;4.472;2023-03-14T09:31:48;3.20;;;2.00;;
61460;SDS011;47325;50.506;4.472;2023-03-14T09:37:32;4.50;;;2.30;;
61460;SDS011;47325;50.506;4.472;2023-03-14T09:43:16;4.20;;;2.20;;
61460;SDS011;47325;50.506;4.472;2023-03-14T09:48:59;5.10;;;2.50;;
61460;SDS011;47325;50.506;4.472;2023-03-14T09:54:46;3.70;;;1.90;;
61460;SDS011;47325;50.506;4.472;2023-03-14T10:00:31;4.90;;;1.80;;
61460;SDS011;47325;50.506;4.472;2023-03-14T10:06:15;3.40;;;1.70;;
61460;SDS011;47325;50.506;4.472;2023-03-14T10:11:59;4.90;;;1.80;;
61460;SDS011;47325;50.506;4.472;2023-03-14T10:17:51;4.70;;;1.90;;
61460;SDS011;47325;50.506;4.472;2023-03-14T10:23:35;3.80;;;2.10;;
61460;SDS011;47325;50.506;4.472;2023-03-14T10:29:21;4.30;;;1.80;;
61460;SDS011;47325;50.506;4.472;2023-03-14T10:35:08;5.40;;;1.80;;
61460;SDS011;47325;50.506;4.472;2023-03-14T10:40:56;4.00;;;1.60;;
61460;SDS011;47325;50.506;4.472;2023-03-14T10:46:40;2.60;;;1.30;;
61460;SDS011;47325;50.506;4.472;2023-03-14T10:52:25;3.00;;;1.50;;
61460;SDS011;47325;50.506;4.472;2023-03-14T10:58:29;5.20;;;1.80;;
61460;SDS011;47325;50.506;4.472;2023-03-14T11:04:19;6.70;;;1.80;;
61460;SDS011;47325;50.506;4.472;2023-03-14T11:10:08;3.60;;;1.50;;
61460;SDS011;47325;50.506;4.472;2023-03-14T11:15:58;3.10;;;1.20;;
61460;SDS011;47325;50.506;4.472;2023-03-14T11:21:46;3.60;;;1.20;;
61460;SDS011;47325;50.506;4.472;2023-03-14T11:27:34;3.80;;;1.20;;
61460;SDS011;47325;50.506;4.472;2023-03-14T11:33:21;2.50;;;1.10;;
61460;SDS011;47325;50.506;4.472;2023-03-14T11:39:07;4.80;;;1.30;;
61460;SDS011;47325;50.506;4.472;2023-03-14T11:44:54;4.60;;;1.30;;
61460;SDS011;47325;50.506;4.472;2023-03-14T11:50:40;5.40;;;1.20;;
61460;SDS011;47325;50.506;4.472;2023-03-14T11:56:27;3.30;;;1.30;;
61460;SDS011;47325;50.506;4.472;2023-03-14T12:02:13;3.40;;;1.20;;
61460;SDS011;47325;50.506;4.472;2023-03-14T12:08:10;2.60;;;1.30;;
61460;SDS011;47325;50.506;4.472;2023-03-14T12:13:55;4.00;;;1.20;;
61460;SDS011;47325;50.506;4.472;2023-03-14T12:19:40;4.40;;;1.20;;
61460;SDS011;47325;50.506;4.472;2023-03-14T12:25:25;3.90;;;1.20;;
61460;SDS011;47325;50.506;4.472;2023-03-14T12:43:20;3.60;;;1.20;;
61460;SDS011;47325;50.506;4.472;2023-03-14T12:49:03;3.10;;;1.20;;
61460;SDS011;47325;50.506;4.472;2023-03-14T12:54:50;3.00;;;1.10;;
61460;SDS011;47325;50.506;4.472;2023-03-14T13:00:38;3.40;;;1.20;;
61460;SDS011;47325;50.506;4.472;2023-03-14T13:12:18;3.00;;;1.10;;
61460;SDS011;47325;50.506;4.472;2023-03-14T13:18:09;2.20;;;1.10;;
61460;SDS011;47325;50.506;4.472;2023-03-14T13:23:58;2.10;;;1.10;;
61460;SDS011;47325;50.506;4.472;2023-03-14T13:29:42;2.50;;;1.20;;
61460;SDS011;47325;50.506;4.472;2023-03-14T13:35:27;1.70;;;0.90;;
61460;SDS011;47325;50.506;4.472;2023-03-14T13:41:11;3.40;;;1.10;;
61460;SDS011;47325;50.506;4.472;2023-03-14T13:46:55;2.70;;;1.20;;
61460;SDS011;47325;50.506;4.472;2023-03-14T13:52:40;2.90;;;1.20;;
61460;SDS011;47325;50.506;4.472;2023-03-14T13:58:26;1.80;;;1.00;;
61460;SDS011;47325;50.506;4.472;2023-03-14T14:04:15;1.40;;;1.00;;
61460;SDS011;47325;50.506;4.472;2023-03-14T14:09:59;1.90;;;0.90;;
61460;SDS011;47325;50.506;4.472;2023-03-14T14:15:44;2.40;;;1.20;;
61460;SDS011;47325;50.506;4.472;2023-03-14T14:21:28;1.60;;;1.20;;
61460;SDS011;47325;50.506;4.472;2023-03-14T14:27:13;3.50;;;1.70;;
61460;SDS011;47325;50.506;4.472;2023-03-14T14:33:09;3.40;;;1.40;;
61460;SDS011;47325;50.506;4.472;2023-03-14T14:38:48;2.20;;;1.50;;
61460;SDS011;47325;50.506;4.472;2023-03-14T14:44:32;2.40;;;1.30;;
61460;SDS011;47325;50.506;4.472;2023-03-14T14:50:27;2.70;;;1.20;;
61460;SDS011;47325;50.506;4.472;2023-03-14T14:56:15;2.00;;;1.00;;
61460;SDS011;47325;50.506;4.472;2023-03-14T15:02:09;2.60;;;1.10;;
61460;SDS011;47325;50.506;4.472;2023-03-14T15:07:58;1.70;;;1.00;;
61460;SDS011;47325;50.506;4.472;2023-03-14T15:13:41;3.00;;;1.00;;
61460;SDS011;47325;50.506;4.472;2023-03-14T15:19:25;2.90;;;0.80;;
61460;SDS011;47325;50.506;4.472;2023-03-14T15:25:09;3.70;;;1.10;;
61460;SDS011;47325;50.506;4.472;2023-03-14T15:31:13;5.80;;;1.10;;
61460;SDS011;47325;50.506;4.472;2023-03-14T15:36:58;5.70;;;1.20;;
61460;SDS011;47325;50.506;4.472;2023-03-14T15:42:41;7.20;;;1.10;;
61460;SDS011;47325;50.506;4.472;2023-03-14T15:48:25;5.50;;;1.30;;
61460;SDS011;47325;50.506;4.472;2023-03-14T15:54:09;6.40;;;1.20;;
61460;SDS011;47325;50.506;4.472;2023-03-14T15:59:53;4.50;;;1.10;;
61460;SDS011;47325;50.506;4.472;2023-03-14T16:05:36;7.10;;;1.50;;
61460;SDS011;47325;50.506;4.472;2023-03-14T16:11:20;5.60;;;1.40;;
61460;SDS011;47325;50.506;4.472;2023-03-14T16:17:05;3.90;;;1.00;;
61460;SDS011;47325;50.506;4.472;2023-03-14T16:22:51;6.30;;;1.20;;
61460;SDS011;47325;50.506;4.472;2023-03-14T16:28:35;4.80;;;0.90;;
61460;SDS011;47325;50.506;4.472;2023-03-14T16:34:19;2.50;;;1.00;;
61460;SDS011;47325;50.506;4.472;2023-03-14T16:40:02;11.30;;;5.30;;
61460;SDS011;47325;50.506;4.472;2023-03-14T16:45:57;44.60;;;25.30;;
61460;SDS011;47325;50.506;4.472;2023-03-14T16:51:42;60.20;;;31.70;;
61460;SDS011;47325;50.506;4.472;2023-03-14T16:57:26;37.10;;;21.90;;
61460;SDS011;47325;50.506;4.472;2023-03-14T17:03:09;35.10;;;19.30;;
61460;SDS011;47325;50.506;4.472;2023-03-14T17:08:54;30.60;;;17.30;;
61460;SDS011;47325;50.506;4.472;2023-03-14T17:14:38;27.80;;;15.30;;
61460;SDS011;47325;50.506;4.472;2023-03-14T17:20:22;25.10;;;14.20;;
61460;SDS011;47325;50.506;4.472;2023-03-14T17:26:05;21.90;;;12.70;;
61460;SDS011;47325;50.506;4.472;2023-03-14T17:31:49;19.20;;;11.10;;
61460;SDS011;47325;50.506;4.472;2023-03-14T17:37:33;18.40;;;10.40;;
61460;SDS011;47325;50.506;4.472;2023-03-14T17:43:17;18.70;;;9.10;;
61460;SDS011;47325;50.506;4.472;2023-03-14T17:49:00;17.80;;;8.50;;
61460;SDS011;47325;50.506;4.472;2023-03-14T17:54:44;15.50;;;7.80;;
61460;SDS011;47325;50.506;4.472;2023-03-14T18:00:30;17.00;;;7.20;;
61460;SDS011;47325;50.506;4.472;2023-03-14T18:06:14;12.50;;;6.60;;
61460;SDS011;47325;50.506;4.472;2023-03-14T18:11:58;12.70;;;5.90;;
61460;SDS011;47325;50.506;4.472;2023-03-14T18:17:50;12.20;;;6.00;;
61460;SDS011;47325;50.506;4.472;2023-03-14T18:23:34;12.60;;;5.50;;
61460;SDS011;47325;50.506;4.472;2023-03-14T18:29:17;10.40;;;5.00;;
61460;SDS011;47325;50.506;4.472;2023-03-14T18:35:01;10.20;;;4.70;;
61460;SDS011;47325;50.506;4.472;2023-03-14T18:40:45;7.80;;;4.40;;
61460;SDS011;47325;50.506;4.472;2023-03-14T18:46:29;9.50;;;4.30;;
61460;SDS011;47325;50.506;4.472;2023-03-14T18:52:12;12.40;;;4.60;;
61460;SDS011;47325;50.506;4.472;2023-03-14T18:57:59;11.90;;;4.40;;
61460;SDS011;47325;50.506;4.472;2023-03-14T19:03:43;9.90;;;4.50;;
61460;SDS011;47325;50.506;4.472;2023-03-14T19:09:27;9.10;;;3.80;;
61460;SDS011;47325;50.506;4.472;2023-03-14T19:15:11;9.90;;;3.70;;
61460;SDS011;47325;50.506;4.472;2023-03-14T19:20:58;7.50;;;3.90;;
61460;SDS011;47325;50.506;4.472;2023-03-14T19:26:42;9.50;;;3.70;;
61460;SDS011;47325;50.506;4.472;2023-03-14T19:32:26;7.30;;;3.40;;
61460;SDS011;47325;50.506;4.472;2023-03-14T19:38:11;8.10;;;3.30;;
61460;SDS011;47325;50.506;4.472;2023-03-14T19:43:55;9.20;;;3.10;;
61460;SDS011;47325;50.506;4.472;2023-03-14T19:49:40;8.30;;;3.30;;
61460;SDS011;47325;50.506;4.472;2023-03-14T19:55:24;8.10;;;3.50;;
61460;SDS011;47325;50.506;4.472;2023-03-14T20:01:09;6.30;;;3.40;;
61460;SDS011;47325;50.506;4.472;2023-03-14T20:06:53;6.60;;;3.30;;
61460;SDS011;47325;50.506;4.472;2023-03-14T20:18:22;8.20;;;3.00;;
61460;SDS011;47325;50.506;4.472;2023-03-14T20:24:06;6.90;;;3.20;;
61460;SDS011;47325;50.506;4.472;2023-03-14T20:29:54;6.80;;;3.60;;
61460;SDS011;47325;50.506;4.472;2023-03-14T20:35:38;8.40;;;3.40;;
61460;SDS011;47325;50.506;4.472;2023-03-14T20:41:22;8.40;;;3.60;;
61460;SDS011;47325;50.506;4.472;2023-03-14T20:47:06;9.10;;;3.40;;
61460;SDS011;47325;50.506;4.472;2023-03-14T20:52:49;5.60;;;3.10;;
61460;SDS011;47325;50.506;4.472;2023-03-14T20:58:34;8.80;;;3.50;;
61460;SDS011;47325;50.506;4.472;2023-03-14T21:04:17;7.10;;;3.40;;
61460;SDS011;47325;50.506;4.472;2023-03-14T21:10:01;7.80;;;4.10;;
61460;SDS011;47325;50.506;4.472;2023-03-14T21:15:45;7.20;;;3.50;;
61460;SDS011;47325;50.506;4.472;2023-03-14T21:21:29;6.50;;;3.70;;
61460;SDS011;47325;50.506;4.472;2023-03-14T21:27:13;8.20;;;3.50;;
61460;SDS011;47325;50.506;4.472;2023-03-14T21:32:57;11.00;;;3.80;;
61460;SDS011;47325;50.506;4.472;2023-03-14T21:38:41;7.90;;;3.50;;
61460;SDS011;47325;50.506;4.472;2023-03-14T21:44:25;7.60;;;3.50;;
61460;SDS011;47325;50.506;4.472;2023-03-14T21:50:09;7.00;;;3.50;;
61460;SDS011;47325;50.506;4.472;2023-03-14T21:55:53;6.40;;;3.40;;
61460;SDS011;47325;50.506;4.472;2023-03-14T22:01:39;6.30;;;3.30;;
61460;SDS011;47325;50.506;4.472;2023-03-14T22:07:23;6.40;;;3.30;;
61460;SDS011;47325;50.506;4.472;2023-03-14T22:13:07;7.40;;;3.60;;
61460;SDS011;47325;50.506;4.472;2023-03-14T22:18:51;6.20;;;3.30;;
61460;SDS011;47325;50.506;4.472;2023-03-14T22:24:35;6.30;;;3.10;;
61460;SDS011;47325;50.506;4.472;2023-03-14T22:30:19;8.30;;;3.30;;
61460;SDS011;47325;50.506;4.472;2023-03-14T22:36:03;5.50;;;3.00;;
61460;SDS011;47325;50.506;4.472;2023-03-14T22:41:47;6.90;;;2.80;;
61460;SDS011;47325;50.506;4.472;2023-03-14T22:47:31;6.50;;;2.90;;
61460;SDS011;47325;50.506;4.472;2023-03-14T22:53:15;5.20;;;2.90;;
61460;SDS011;47325;50.506;4.472;2023-03-14T22:58:59;8.60;;;3.10;;
61460;SDS011;47325;50.506;4.472;2023-03-14T23:04:43;4.60;;;2.80;;
61460;SDS011;47325;50.506;4.472;2023-03-14T23:10:27;5.90;;;2.40;;
61460;SDS011;47325;50.506;4.472;2023-03-14T23:16:11;6.20;;;2.60;;
61460;SDS011;47325;50.506;4.472;2023-03-14T23:21:56;5.60;;;2.60;;
61460;SDS011;47325;50.506;4.472;2023-03-14T23:27:39;5.70;;;2.90;;
61460;SDS011;47325;50.506;4.472;2023-03-14T23:33:23;5.00;;;2.90;;
61460;SDS011;47325;50.506;4.472;2023-03-14T23:39:08;5.80;;;2.30;;
61460;SDS011;47325;50.506;4.472;2023-03-14T23:44:52;5.20;;;2.60;;
61460;SDS011;47325;50.506;4.472;2023-03-14T23:50:37;7.10;;;2.30;;
61460;SDS011;47325;50.506;4.472;2023-03-14T23:56:21;4.00;;;2.10;;
